createdAt,value
2018-07-24T00:00:45.811Z,58.10
2018-07-24T00:03:12.277Z,58.10
2018-07-24T00:05:38.746Z,58.10
2018-07-24T00:08:05.252Z,58.10
2018-07-24T00:10:31.723Z,58.10
2018-07-24T00:12:58.256Z,58.10
2018-07-24T00:15:24.786Z,58.10
2018-07-24T00:17:51.241Z,58.10
2018-07-24T00:20:17.696Z,58.00
2018-07-24T00:22:44.166Z,58.10
2018-07-24T00:25:10.680Z,58.10
2018-07-24T00:27:37.161Z,58.10
2018-07-24T00:30:03.657Z,58.10
2018-07-24T00:32:30.238Z,58.10
2018-07-24T00:34:56.690Z,58.10
2018-07-24T00:37:23.884Z,58.10
2018-07-24T00:39:50.335Z,58.10
2018-07-24T00:42:17.035Z,58.10
2018-07-24T00:44:43.729Z,58.10
2018-07-24T00:47:10.259Z,58.10
2018-07-24T00:49:36.704Z,58.10
2018-07-24T00:52:03.190Z,58.10
2018-07-24T00:54:29.673Z,58.10
2018-07-24T00:56:56.155Z,58.70
2018-07-24T00:59:22.614Z,58.10
2018-07-24T01:01:49.105Z,58.10
2018-07-24T01:04:15.571Z,58.10
2018-07-24T01:06:42.009Z,58.10
2018-07-24T01:09:09.799Z,58.10
2018-07-24T01:11:36.845Z,58.10
2018-07-24T01:14:03.291Z,58.00
2018-07-24T01:16:29.833Z,58.00
2018-07-24T01:18:56.410Z,58.10
2018-07-24T01:21:22.881Z,58.10
2018-07-24T01:23:49.325Z,58.10
2018-07-24T01:26:15.770Z,58.00
2018-07-24T01:28:42.313Z,58.10
2018-07-24T01:31:08.915Z,58.60
2018-07-24T01:33:36.177Z,58.00
2018-07-24T01:36:03.237Z,58.10
2018-07-24T01:38:29.693Z,58.00
2018-07-24T01:40:56.163Z,58.10
2018-07-24T01:43:23.273Z,58.00
2018-07-24T01:45:49.773Z,58.00
2018-07-24T01:48:16.223Z,58.10
2018-07-24T01:50:42.681Z,58.00
2018-07-24T01:53:09.195Z,58.00
2018-07-24T01:55:35.697Z,58.10
2018-07-24T01:58:02.959Z,58.10
2018-07-24T02:00:29.439Z,58.10
2018-07-24T02:02:56.504Z,58.00
2018-07-24T02:05:22.975Z,58.10
2018-07-24T02:07:49.439Z,58.00
2018-07-24T02:10:15.903Z,58.00
2018-07-24T02:12:42.409Z,58.00
2018-07-24T02:15:08.917Z,58.00
2018-07-24T02:17:36.100Z,58.10
2018-07-24T02:20:02.836Z,58.00
2018-07-24T02:22:29.317Z,58.00
2018-07-24T02:24:55.817Z,58.00
2018-07-24T02:27:22.287Z,58.00
2018-07-24T02:29:48.823Z,58.00
2018-07-24T02:32:15.245Z,58.00
2018-07-24T02:34:41.771Z,58.00
2018-07-24T02:37:08.265Z,58.20
2018-07-24T02:39:34.727Z,58.00
2018-07-24T02:42:01.223Z,58.00
2018-07-24T02:44:27.688Z,58.00
2018-07-24T02:46:54.195Z,58.00
2018-07-24T02:49:20.661Z,58.00
2018-07-24T02:51:47.205Z,58.00
2018-07-24T02:54:13.665Z,58.00
2018-07-24T02:56:40.189Z,58.00
2018-07-24T02:59:06.673Z,58.00
2018-07-24T03:01:33.208Z,58.00
2018-07-24T03:03:59.695Z,58.00
2018-07-24T03:06:26.153Z,58.00
2018-07-24T03:08:53.057Z,58.00
2018-07-24T03:11:19.695Z,58.00
2018-07-24T03:13:46.145Z,58.00
2018-07-24T03:16:12.601Z,58.00
2018-07-24T03:18:39.116Z,58.00
2018-07-24T03:21:05.559Z,58.00
2018-07-24T03:23:32.032Z,58.00
2018-07-24T03:25:58.525Z,58.00
2018-07-24T03:30:52.581Z,58.00
2018-07-24T03:33:19.015Z,58.00
2018-07-24T03:35:45.487Z,58.00
2018-07-24T03:38:11.926Z,58.00
2018-07-24T03:40:38.427Z,58.00
2018-07-24T03:43:04.974Z,58.00
2018-07-24T03:45:31.431Z,57.90
2018-07-24T03:47:57.917Z,57.90
2018-07-24T03:50:24.436Z,58.00
2018-07-24T03:52:50.978Z,58.00
2018-07-24T03:55:17.460Z,58.00
2018-07-24T03:57:44.149Z,58.00
2018-07-24T04:00:10.639Z,57.90
2018-07-24T04:02:37.081Z,58.00
2018-07-24T04:05:03.641Z,58.00
2018-07-24T04:07:30.105Z,58.00
2018-07-24T04:09:56.600Z,58.00
2018-07-24T04:12:23.055Z,58.00
2018-07-24T04:14:49.619Z,58.00
2018-07-24T04:17:16.076Z,58.00
2018-07-24T04:19:42.626Z,58.40
2018-07-24T04:22:09.732Z,58.00
2018-07-24T04:24:36.194Z,58.00
2018-07-24T04:27:02.664Z,58.00
2018-07-24T04:29:29.173Z,58.00
2018-07-24T04:31:55.654Z,58.40
2018-07-24T04:34:22.116Z,58.00
2018-07-24T04:36:48.569Z,58.00
2018-07-24T04:39:15.051Z,57.90
2018-07-24T04:41:41.517Z,58.00
2018-07-24T04:44:07.958Z,58.00
2018-07-24T04:46:34.471Z,58.00
2018-07-24T04:49:00.936Z,58.00
2018-07-24T04:51:27.430Z,58.60
2018-07-24T04:53:53.929Z,59.00
2018-07-24T04:56:20.394Z,58.40
2018-07-24T04:58:46.892Z,58.90
2018-07-24T05:01:13.350Z,58.80
2018-07-24T05:03:40.499Z,59.00
2018-07-24T05:06:06.994Z,58.80
2018-07-24T05:08:33.862Z,58.90
2018-07-24T05:11:00.364Z,59.00
2018-07-24T05:13:27.468Z,58.90
2018-07-24T05:15:53.974Z,59.40
2018-07-24T05:18:20.432Z,58.80
2018-07-24T05:20:46.916Z,58.80
2018-07-24T05:23:13.364Z,58.90
2018-07-24T05:25:39.810Z,58.90
2018-07-24T05:28:06.436Z,58.90
2018-07-24T05:30:32.913Z,59.00
2018-07-24T05:32:59.392Z,58.90
2018-07-24T05:35:25.887Z,58.90
2018-07-24T05:37:52.352Z,58.90
2018-07-24T05:40:18.808Z,59.10
2018-07-24T05:42:45.909Z,59.10
2018-07-24T05:45:12.558Z,59.20
2018-07-24T05:47:39.014Z,59.30
2018-07-24T05:50:05.470Z,59.10
2018-07-24T05:52:43.025Z,58.90
2018-07-24T05:55:12.010Z,59.00
2018-07-24T05:57:39.160Z,59.00
2018-07-24T06:00:05.758Z,59.10
2018-07-24T06:02:32.768Z,59.10
2018-07-24T06:04:59.860Z,59.00
2018-07-24T06:07:26.414Z,59.10
2018-07-24T06:09:52.796Z,59.00
2018-07-24T06:12:19.427Z,59.10
2018-07-24T06:14:45.920Z,59.10
2018-07-24T06:17:12.420Z,59.10
2018-07-24T06:19:38.938Z,59.10
2018-07-24T06:22:05.922Z,59.10
2018-07-24T06:24:32.386Z,59.10
2018-07-24T06:26:58.846Z,59.00
2018-07-24T06:29:25.994Z,59.20
2018-07-24T06:31:52.472Z,59.10
2018-07-24T06:34:18.947Z,59.10
2018-07-24T06:36:45.380Z,59.00
2018-07-24T06:39:13.105Z,59.00
2018-07-24T06:41:40.055Z,59.00
2018-07-24T06:44:06.515Z,59.20
2018-07-24T06:46:33.026Z,59.10
2018-07-24T06:48:59.843Z,59.00
2018-07-24T06:51:26.365Z,59.20
2018-07-24T06:53:52.819Z,59.20
2018-07-24T06:56:19.254Z,59.20
2018-07-24T06:58:45.949Z,59.20
2018-07-24T07:01:12.405Z,59.30
2018-07-24T07:03:39.018Z,59.20
2018-07-24T07:06:05.505Z,59.20
2018-07-24T07:08:32.087Z,59.30
2018-07-24T07:13:25.941Z,59.30
2018-07-24T07:15:52.422Z,59.30
2018-07-24T07:18:18.908Z,59.30
2018-07-24T07:20:45.407Z,59.30
2018-07-24T07:23:11.994Z,59.30
2018-07-24T07:25:38.419Z,59.20
2018-07-24T07:28:04.839Z,59.20
2018-07-24T07:30:31.271Z,59.00
2018-07-24T07:32:57.691Z,58.90
2018-07-24T07:35:24.114Z,58.90
2018-07-24T07:37:50.572Z,59.00
2018-07-24T07:40:17.005Z,58.90
2018-07-24T07:45:10.334Z,59.00
2018-07-24T07:47:37.412Z,59.00
2018-07-24T07:50:03.839Z,59.00
2018-07-24T07:52:30.288Z,58.90
2018-07-24T07:54:56.711Z,58.90
2018-07-24T07:57:23.106Z,58.80
2018-07-24T07:59:49.508Z,58.80
2018-07-24T08:02:15.941Z,58.70
2018-07-24T08:04:42.359Z,58.80
2018-07-24T08:07:08.795Z,58.80
2018-07-24T08:09:35.281Z,58.80
2018-07-24T08:12:01.684Z,58.60
2018-07-24T08:14:29.199Z,58.60
2018-07-24T08:16:55.811Z,58.70
2018-07-24T08:19:22.300Z,59.20
2018-07-24T08:21:48.783Z,58.60
2018-07-24T08:24:15.223Z,58.60
2018-07-24T08:26:41.744Z,58.40
2018-07-24T08:29:08.240Z,58.40
2018-07-24T08:31:34.710Z,58.40
2018-07-24T08:34:01.799Z,58.40
2018-07-24T08:36:28.281Z,58.40
2018-07-24T08:38:55.354Z,58.50
2018-07-24T08:41:21.846Z,58.50
2018-07-24T08:43:48.331Z,58.50
2018-07-24T08:46:14.834Z,58.50
2018-07-24T08:48:41.278Z,58.60
2018-07-24T08:51:07.708Z,57.30
2018-07-24T08:53:34.392Z,58.70
2018-07-24T08:56:01.199Z,58.80
2018-07-24T08:58:28.990Z,58.70
2018-07-24T09:00:55.466Z,58.80
2018-07-24T09:03:22.003Z,58.70
2018-07-24T09:05:48.588Z,58.80
2018-07-24T09:08:15.686Z,58.70
2018-07-24T09:10:42.164Z,58.70
2018-07-24T09:13:08.765Z,58.80
2018-07-24T09:15:35.254Z,58.80
2018-07-24T09:18:02.080Z,58.80
2018-07-24T09:20:28.565Z,58.70
2018-07-24T09:22:55.056Z,58.20
2018-07-24T09:25:21.547Z,58.70
2018-07-24T09:30:14.961Z,58.80
2018-07-24T09:32:41.411Z,58.80
2018-07-24T09:35:07.880Z,58.80
2018-07-24T09:37:34.344Z,58.80
2018-07-24T09:40:00.794Z,58.80
2018-07-24T09:42:27.269Z,58.60
2018-07-24T09:44:53.842Z,58.70
2018-07-24T09:47:20.344Z,58.70
2018-07-24T09:49:46.884Z,58.70
2018-07-24T09:52:13.497Z,58.60
2018-07-24T09:54:40.146Z,58.60
2018-07-24T10:02:01.108Z,58.30
2018-07-24T10:04:27.617Z,58.80
2018-07-24T10:06:54.134Z,58.20
2018-07-24T10:09:20.611Z,58.20
2018-07-24T10:11:47.083Z,58.80
2018-07-24T10:14:13.678Z,58.20
2018-07-24T10:16:40.888Z,58.20
2018-07-24T10:19:07.357Z,58.10
2018-07-24T10:21:33.862Z,58.20
2018-07-24T10:24:00.311Z,58.20
2018-07-24T10:26:27.368Z,58.20
2018-07-24T10:28:53.963Z,58.20
2018-07-24T10:31:20.485Z,58.10
2018-07-24T10:33:46.959Z,58.50
2018-07-24T10:36:13.443Z,57.80
2018-07-24T10:38:40.076Z,57.70
2018-07-24T10:41:06.542Z,57.70
2018-07-24T10:43:33.551Z,57.70
2018-07-24T10:46:00.043Z,57.70
2018-07-24T10:48:26.533Z,57.70
2018-07-24T10:50:53.673Z,57.60
2018-07-24T10:53:20.220Z,57.70
2018-07-24T10:55:46.689Z,57.80
2018-07-24T10:58:13.474Z,57.70
2018-07-24T11:00:39.965Z,57.70
2018-07-24T11:03:06.534Z,57.60
2018-07-24T11:05:34.044Z,57.60
2018-07-24T11:08:01.184Z,57.50
2018-07-24T11:10:27.749Z,57.40
2018-07-24T11:12:54.280Z,57.30
2018-07-24T11:15:20.777Z,57.20
2018-07-24T11:17:47.537Z,57.20
2018-07-24T11:20:14.026Z,57.00
2018-07-24T11:22:40.754Z,56.90
2018-07-24T11:25:07.762Z,57.00
2018-07-24T11:27:34.303Z,56.90
2018-07-24T11:30:01.226Z,56.90
2018-07-24T11:32:28.200Z,56.90
2018-07-24T11:34:54.658Z,56.80
2018-07-24T11:37:21.138Z,56.80
2018-07-24T11:39:47.599Z,56.70
2018-07-24T11:42:14.074Z,56.70
2018-07-24T11:44:40.544Z,56.60
2018-07-24T11:47:07.042Z,56.60
2018-07-24T11:49:33.511Z,56.60
2018-07-24T11:52:00.146Z,56.50
2018-07-24T11:54:26.626Z,56.50
2018-07-24T11:56:53.104Z,56.40
2018-07-24T12:01:46.651Z,56.40
2018-07-24T12:04:13.081Z,56.50
2018-07-24T12:06:39.554Z,56.40
2018-07-24T12:09:06.035Z,56.30
2018-07-24T12:11:32.636Z,56.30
2018-07-24T12:13:59.248Z,56.30
2018-07-24T12:16:25.751Z,56.30
2018-07-24T12:18:52.300Z,56.30
2018-07-24T12:21:18.782Z,56.10
2018-07-24T12:23:45.258Z,56.20
2018-07-24T12:26:11.744Z,56.10
2018-07-24T12:28:38.754Z,56.10
2018-07-24T12:31:05.207Z,56.10
2018-07-24T12:33:31.686Z,56.00
2018-07-24T12:35:58.205Z,56.10
2018-07-24T12:38:24.642Z,56.00
2018-07-24T12:40:51.207Z,56.00
2018-07-24T12:43:17.703Z,56.00
2018-07-24T12:45:44.440Z,55.90
2018-07-24T12:48:11.171Z,55.90
2018-07-24T12:50:37.852Z,55.90
2018-07-24T12:53:04.311Z,55.80
2018-07-24T12:55:31.254Z,55.90
2018-07-24T12:57:57.805Z,55.90
2018-07-24T13:00:24.232Z,55.90
2018-07-24T13:02:50.858Z,56.00
2018-07-24T13:05:17.354Z,55.90
2018-07-24T13:07:43.862Z,56.00
2018-07-24T13:10:11.492Z,56.00
2018-07-24T13:12:37.916Z,56.00
2018-07-24T13:15:04.397Z,56.10
2018-07-24T13:17:31.820Z,56.10
2018-07-24T13:19:58.302Z,56.10
2018-07-24T13:22:24.772Z,56.10
2018-07-24T13:24:51.285Z,56.20
2018-07-24T13:27:17.762Z,56.20
2018-07-24T13:29:44.203Z,56.20
2018-07-24T13:32:10.738Z,56.90
2018-07-24T13:34:37.179Z,56.20
2018-07-24T13:37:03.788Z,56.30
2018-07-24T13:39:30.271Z,56.30
2018-07-24T13:41:57.541Z,56.20
2018-07-24T13:44:24.012Z,56.30
2018-07-24T13:46:50.504Z,56.20
2018-07-24T13:49:17.047Z,56.30
2018-07-24T13:51:43.540Z,56.90
2018-07-24T13:54:10.035Z,57.40
2018-07-24T13:56:36.506Z,57.60
2018-07-24T13:59:03.118Z,57.40
2018-07-24T14:01:29.477Z,57.40
2018-07-24T14:03:56.125Z,57.30
2018-07-24T14:06:22.583Z,57.40
2018-07-24T14:08:49.050Z,57.30
2018-07-24T14:11:15.587Z,57.60
2018-07-24T14:13:42.091Z,56.90
2018-07-24T14:16:08.675Z,56.90
2018-07-24T14:18:35.458Z,57.00
2018-07-24T14:21:01.908Z,57.00
2018-07-24T14:23:28.371Z,56.80
2018-07-24T14:25:55.379Z,57.00
2018-07-24T14:28:21.907Z,57.00
2018-07-24T14:30:48.365Z,57.00
2018-07-24T14:33:15.419Z,56.90
2018-07-24T14:35:41.967Z,57.00
2018-07-24T14:38:08.431Z,56.90
2018-07-24T14:40:35.051Z,56.90
2018-07-24T14:43:02.179Z,56.90
2018-07-24T14:45:28.667Z,56.90
2018-07-24T14:47:55.693Z,56.80
2018-07-24T14:50:22.178Z,56.80
2018-07-24T14:52:49.086Z,56.80
2018-07-24T14:55:15.524Z,56.80
2018-07-24T14:57:42.067Z,56.80
2018-07-24T15:00:08.635Z,56.80
2018-07-24T15:02:35.280Z,56.80
2018-07-24T15:05:01.816Z,56.90
2018-07-24T15:07:28.259Z,56.70
2018-07-24T15:09:54.767Z,56.80
2018-07-24T15:12:21.243Z,56.80
2018-07-24T15:14:47.700Z,57.20
2018-07-24T15:17:14.285Z,58.00
2018-07-24T15:19:40.699Z,57.90
2018-07-24T15:24:34.296Z,58.20
2018-07-24T15:27:00.775Z,58.40
2018-07-24T15:29:27.219Z,58.70
2018-07-24T15:31:53.695Z,59.10
2018-07-24T15:34:20.462Z,60.60
2018-07-24T15:36:46.718Z,59.60
2018-07-24T15:39:13.821Z,60.00
2018-07-24T15:41:40.938Z,60.20
2018-07-24T15:44:07.544Z,60.20
2018-07-24T15:46:44.116Z,60.20
2018-07-24T15:49:10.611Z,59.80
2018-07-24T15:51:37.077Z,59.60
2018-07-24T15:54:03.896Z,59.20
2018-07-24T15:56:30.382Z,59.00
2018-07-24T15:58:57.206Z,58.80
2018-07-24T16:01:23.669Z,58.50
2018-07-24T16:03:50.155Z,58.60
2018-07-24T16:06:17.761Z,58.40
2018-07-24T16:08:44.287Z,58.30
2018-07-24T16:11:10.744Z,58.30
2018-07-24T16:13:37.232Z,58.30
2018-07-24T16:16:03.787Z,58.30
2018-07-24T16:18:30.477Z,58.30
2018-07-24T16:20:57.644Z,58.30
2018-07-24T16:23:24.123Z,58.00
2018-07-24T16:25:50.619Z,57.60
2018-07-24T16:28:17.094Z,57.80
2018-07-24T16:30:43.530Z,57.20
2018-07-24T16:33:10.236Z,57.00
2018-07-24T16:35:36.720Z,56.60
2018-07-24T16:38:03.207Z,56.50
2018-07-24T16:40:29.696Z,56.90
2018-07-24T16:42:56.171Z,56.40
2018-07-24T16:45:22.604Z,55.80
2018-07-24T16:47:49.059Z,55.60
2018-07-24T16:50:15.664Z,55.50
2018-07-24T16:52:42.113Z,56.00
2018-07-24T16:55:08.698Z,56.50
2018-07-24T16:57:35.268Z,56.60
2018-07-24T17:00:01.754Z,56.60
2018-07-24T17:02:28.242Z,56.60
2018-07-24T17:04:54.684Z,56.50
2018-07-24T17:07:21.266Z,56.30
2018-07-24T17:09:47.710Z,56.30
2018-07-24T17:12:14.177Z,56.90
2018-07-24T17:14:40.663Z,56.40
2018-07-24T17:17:07.154Z,56.20
2018-07-24T17:19:33.646Z,56.30
2018-07-24T17:22:00.260Z,55.90
2018-07-24T17:24:27.248Z,55.50
2018-07-24T17:26:53.770Z,55.50
2018-07-24T17:29:20.309Z,55.60
2018-07-24T17:31:46.827Z,55.60
2018-07-24T17:34:13.289Z,55.40
2018-07-24T17:36:39.770Z,55.30
2018-07-24T17:39:06.290Z,55.10
2018-07-24T17:41:32.802Z,55.20
2018-07-24T17:43:59.257Z,55.00
2018-07-24T17:46:25.765Z,55.00
2018-07-24T17:48:52.354Z,55.00
2018-07-24T17:51:18.827Z,54.70
2018-07-24T17:53:45.332Z,54.70
2018-07-24T17:56:11.796Z,54.50
2018-07-24T17:58:38.273Z,54.60
2018-07-24T18:01:04.820Z,54.20
2018-07-24T18:05:58.185Z,53.90
2018-07-24T18:08:24.689Z,54.20
2018-07-24T18:10:51.139Z,54.40
2018-07-24T18:13:18.283Z,54.40
2018-07-24T18:15:44.903Z,54.60
2018-07-24T18:18:11.385Z,54.70
2018-07-24T18:20:37.889Z,54.70
2018-07-24T18:23:04.358Z,54.60
2018-07-24T18:25:30.869Z,54.30
2018-07-24T18:27:57.463Z,54.30
2018-07-24T18:30:24.589Z,54.00
2018-07-24T18:32:51.102Z,53.90
2018-07-24T18:35:17.587Z,53.80
2018-07-24T18:37:44.091Z,53.60
2018-07-24T18:40:11.350Z,53.40
2018-07-24T18:42:37.873Z,53.40
2018-07-24T18:45:04.901Z,53.80
2018-07-24T18:47:31.449Z,53.10
2018-07-24T18:52:30.989Z,52.90
2018-07-24T18:54:58.550Z,53.10
2018-07-24T18:57:25.098Z,53.10
2018-07-24T18:59:51.627Z,53.00
2018-07-24T19:02:18.565Z,53.20
2018-07-24T19:04:45.571Z,53.20
2018-07-24T19:07:12.559Z,53.40
2018-07-24T19:09:39.303Z,53.70
2018-07-24T19:12:05.805Z,54.20
2018-07-24T19:16:59.623Z,55.00
2018-07-24T19:19:26.391Z,55.40
2018-07-24T19:21:52.930Z,55.70
2018-07-24T19:24:19.742Z,55.90
2018-07-24T19:26:46.369Z,56.10
2018-07-24T19:29:13.869Z,56.30
2018-07-24T19:31:40.589Z,56.10
2018-07-24T19:34:07.789Z,56.30
2018-07-24T19:36:34.601Z,56.30
2018-07-24T19:39:01.336Z,56.40
2018-07-24T19:41:28.138Z,56.50
2018-07-24T19:43:55.119Z,56.60
2018-07-24T19:46:22.023Z,56.60
2018-07-24T19:48:48.633Z,56.60
2018-07-24T19:51:15.469Z,56.80
2018-07-24T19:53:42.072Z,56.70
2018-07-24T19:56:09.079Z,56.90
2018-07-24T19:58:36.327Z,57.00
2018-07-24T20:01:04.201Z,57.00
2018-07-24T20:03:31.035Z,56.90
2018-07-24T20:05:57.980Z,56.90
2018-07-24T20:08:25.886Z,56.90
2018-07-24T20:10:52.728Z,57.10
2018-07-24T20:13:19.570Z,57.10
2018-07-24T20:15:46.418Z,57.40
2018-07-24T20:18:13.460Z,57.10
2018-07-24T20:20:40.328Z,57.00
2018-07-24T20:23:07.195Z,57.50
2018-07-24T20:25:33.908Z,56.80
2018-07-24T20:28:00.502Z,56.70
2018-07-24T20:32:54.128Z,56.60
2018-07-24T20:35:20.726Z,56.60
2018-07-24T20:40:14.263Z,56.50
2018-07-24T20:42:40.736Z,56.50
2018-07-24T20:45:07.320Z,56.50
2018-07-24T20:47:33.782Z,56.50
2018-07-24T20:50:00.256Z,56.50
2018-07-24T20:52:26.776Z,56.50
2018-07-24T20:54:53.322Z,56.40
2018-07-24T20:57:19.925Z,56.40
2018-07-24T20:59:46.395Z,56.50
2018-07-24T21:02:12.890Z,56.50
2018-07-24T21:04:39.376Z,56.40
2018-07-24T21:07:05.915Z,56.40
2018-07-24T21:09:32.414Z,56.40
2018-07-24T21:11:58.913Z,56.40
2018-07-24T21:14:25.369Z,56.40
2018-07-24T21:16:52.463Z,56.40
2018-07-24T21:19:19.018Z,56.50
2018-07-24T21:21:45.513Z,56.50
2018-07-24T21:24:12.051Z,56.50
2018-07-24T21:26:38.562Z,56.50
2018-07-24T21:29:05.030Z,56.50
2018-07-24T21:31:31.537Z,56.50
2018-07-24T21:33:58.034Z,56.40
2018-07-24T21:36:24.564Z,56.50
2018-07-24T21:38:51.652Z,56.60
2018-07-24T21:41:18.126Z,56.60
2018-07-24T21:43:44.615Z,56.60
2018-07-24T21:46:11.121Z,56.50
2018-07-24T21:48:37.578Z,56.70
2018-07-24T21:51:04.052Z,56.60
2018-07-24T21:53:30.556Z,56.90
2018-07-24T21:55:57.063Z,56.60
2018-07-24T21:58:23.551Z,56.70
2018-07-24T22:00:55.610Z,56.60
2018-07-24T22:03:22.074Z,57.40
2018-07-24T22:05:48.534Z,56.80
2018-07-24T22:08:15.022Z,56.80
2018-07-24T22:10:41.456Z,56.70
2018-07-24T22:13:07.951Z,56.80
2018-07-24T22:15:34.437Z,56.80
2018-07-24T22:18:00.966Z,56.80
2018-07-24T22:20:27.450Z,56.80
2018-07-24T22:22:54.177Z,56.80
2018-07-24T22:25:20.629Z,56.70
2018-07-24T22:27:47.097Z,56.80
2018-07-24T22:30:13.713Z,56.80
2018-07-24T22:32:40.165Z,56.80
2018-07-24T22:35:07.468Z,56.80
2018-07-24T22:37:34.261Z,56.80
2018-07-24T22:40:01.073Z,56.90
2018-07-24T22:42:28.160Z,56.90
2018-07-24T22:44:54.661Z,56.90
2018-07-24T22:47:21.121Z,56.90
2018-07-24T22:49:47.625Z,56.90
2018-07-24T22:52:14.080Z,56.90
2018-07-24T22:54:40.599Z,56.90
2018-07-24T22:57:07.426Z,57.10
2018-07-24T22:59:33.907Z,56.90
2018-07-24T23:02:00.366Z,56.80
2018-07-24T23:04:26.851Z,56.80
2018-07-24T23:06:53.343Z,56.80
2018-07-24T23:09:19.798Z,56.80
2018-07-24T23:11:46.243Z,56.80
2018-07-24T23:14:12.695Z,56.90
2018-07-24T23:16:39.184Z,56.90
2018-07-24T23:19:05.622Z,56.80
2018-07-24T23:21:32.093Z,57.00
2018-07-24T23:23:58.587Z,56.80
2018-07-24T23:26:25.157Z,56.80
2018-07-24T23:28:51.654Z,56.80
2018-07-24T23:31:18.104Z,56.50
2018-07-24T23:33:44.558Z,56.80
2018-07-24T23:36:11.672Z,56.80
2018-07-24T23:38:38.585Z,56.80
2018-07-24T23:41:05.070Z,56.80
2018-07-24T23:43:31.550Z,56.80
2018-07-24T23:45:58.032Z,56.80
2018-07-24T23:48:25.016Z,56.90
2018-07-24T23:50:51.479Z,56.80
2018-07-24T23:53:17.958Z,56.80
2018-07-24T23:55:44.451Z,56.80
2018-07-24T23:58:10.943Z,56.80
